Time;durP1;ratioP1;P1;durP2;ratioP2;P2;SDS_P1;SDS_P2;PMS_P1;PMS_P2;Temp;Humidity;BMP_temperature;BMP_pressure;BME280_temperature;BME280_humidity;BME280_pressure;Samples;Min_cycle;Max_cycle;Signal;HPM_P1;HPM_P2
2021/07/23 00:00:39;;;;;;;5.78;4.38;;;21.30;49.10;;;;;;5035138;28;20075;-67
2021/07/23 00:03:05;;;;;;;6.70;4.22;;;21.30;48.90;;;;;;5034772;28;20518;-66
2021/07/23 00:05:32;;;;;;;7.30;4.45;;;21.30;49.10;;;;;;5034929;28;20053;-67
2021/07/23 00:07:57;;;;;;;7.88;4.57;;;21.20;49.50;;;;;;5034944;28;20498;-66
2021/07/23 00:10:24;;;;;;;5.85;4.47;;;21.20;49.40;;;;;;5034886;28;20034;-67
2021/07/23 00:12:49;;;;;;;7.55;4.72;;;21.20;49.60;;;;;;5034854;28;20090;-66
2021/07/23 00:15:15;;;;;;;4.95;4.18;;;21.10;49.60;;;;;;5034756;28;20113;-66
2021/07/23 00:17:41;;;;;;;5.40;3.97;;;21.10;49.60;;;;;;5034381;28;20061;-67
2021/07/23 00:20:07;;;;;;;7.57;5.15;;;21.10;49.60;;;;;;5034661;28;20038;-66
2021/07/23 00:22:34;;;;;;;8.70;5.10;;;21.00;49.80;;;;;;5034548;28;20096;-67
2021/07/23 00:24:59;;;;;;;5.78;4.53;;;21.00;50.00;;;;;;5034508;28;20056;-66
2021/07/23 00:27:25;;;;;;;6.43;4.50;;;21.00;50.00;;;;;;5034591;28;20061;-67
2021/07/23 00:29:51;;;;;;;6.53;4.65;;;21.00;50.00;;;;;;5034544;28;20044;-66
2021/07/23 00:32:17;;;;;;;6.13;4.45;;;20.90;50.20;;;;;;5034571;28;20495;-67
2021/07/23 00:34:43;;;;;;;4.93;4.35;;;20.90;50.20;;;;;;5033427;28;20044;-66
2021/07/23 00:37:09;;;;;;;8.30;4.85;;;20.90;50.20;;;;;;5033914;28;20037;-67
2021/07/23 00:39:34;;;;;;;6.50;4.78;;;20.90;50.50;;;;;;5034303;28;20112;-67
2021/07/23 00:42:00;;;;;;;6.25;4.35;;;20.80;50.40;;;;;;5033835;28;20033;-66
2021/07/23 00:44:26;;;;;;;8.18;4.75;;;20.80;50.50;;;;;;5034253;28;20053;-66
2021/07/23 00:46:55;;;;;;;7.50;4.70;;;20.80;50.70;;;;;;5034129;28;20494;-66
2021/07/23 00:49:21;;;;;;;6.35;4.43;;;20.80;50.80;;;;;;5034156;28;20487;-67
2021/07/23 00:51:48;;;;;;;8.25;4.97;;;20.70;50.70;;;;;;5034089;28;20040;-66
2021/07/23 00:54:14;;;;;;;5.22;4.05;;;20.70;51.00;;;;;;5033986;28;20825;-67
2021/07/23 00:56:41;;;;;;;5.95;4.85;;;20.70;51.10;;;;;;5033884;28;20038;-66
2021/07/23 00:59:07;;;;;;;8.65;4.40;;;20.70;51.30;;;;;;5033823;28;20021;-66
2021/07/23 01:01:33;;;;;;;4.82;4.25;;;20.70;51.40;;;;;;5033795;28;20033;-67
2021/07/23 01:04:02;;;;;;;6.30;4.75;;;20.60;51.40;;;;;;5032175;28;20391;-66
2021/07/23 01:06:27;;;;;;;5.53;4.22;;;20.60;51.40;;;;;;5033566;28;20030;-66
2021/07/23 01:08:53;;;;;;;6.85;4.70;;;20.60;51.30;;;;;;5033599;28;20502;-67
2021/07/23 01:11:19;;;;;;;6.78;4.95;;;20.60;51.50;;;;;;5033272;28;20056;-68
2021/07/23 01:13:45;;;;;;;6.70;4.93;;;20.50;51.60;;;;;;5033645;28;20053;-67
2021/07/23 01:16:11;;;;;;;9.57;5.07;;;20.50;51.70;;;;;;5033552;28;20029;-67
2021/07/23 01:18:38;;;;;;;6.57;4.82;;;20.50;51.70;;;;;;5033664;28;20104;-67
2021/07/23 01:21:04;;;;;;;8.18;4.65;;;20.50;51.80;;;;;;5033575;28;20052;-67
2021/07/23 01:23:31;;;;;;;5.50;4.60;;;20.50;51.80;;;;;;5033561;28;20127;-66
2021/07/23 01:25:58;;;;;;;5.70;4.72;;;20.50;52.00;;;;;;5033449;28;20030;-67
2021/07/23 01:28:29;;;;;;;10.23;4.85;;;20.40;52.50;;;;;;5035159;28;20032;-66
2021/07/23 01:30:55;;;;;;;7.10;4.32;;;20.40;52.90;;;;;;5033437;28;20064;-67
2021/07/23 01:33:21;;;;;;;8.68;5.30;;;20.40;52.50;;;;;;5033467;28;20077;-67
2021/07/23 01:35:46;;;;;;;5.88;3.92;;;20.40;52.90;;;;;;5033520;28;20026;-66
2021/07/23 01:38:15;;;;;;;9.35;4.63;;;20.40;53.00;;;;;;5033461;28;20025;-66
2021/07/23 01:40:46;;;;;;;6.43;4.43;;;20.40;52.90;;;;;;5033397;28;20430;-66
2021/07/23 01:43:14;;;;;;;9.85;5.43;;;20.40;53.20;;;;;;5018079;28;20112;-67
2021/07/23 01:45:41;;;;;;;7.00;4.80;;;20.40;52.90;;;;;;5013245;28;20501;-67
2021/07/23 01:48:07;;;;;;;5.55;4.68;;;20.30;52.90;;;;;;5011569;28;20022;-66
2021/07/23 01:50:33;;;;;;;6.18;4.43;;;20.30;52.80;;;;;;5012734;28;20049;-66
2021/07/23 01:52:59;;;;;;;8.48;4.85;;;20.30;53.00;;;;;;5013021;28;20049;-67
2021/07/23 01:55:24;;;;;;;6.68;4.68;;;20.30;53.40;;;;;;5011771;28;20034;-66
2021/07/23 01:57:50;;;;;;;9.35;5.07;;;20.20;53.30;;;;;;5013014;28;20063;-66
2021/07/23 02:00:16;;;;;;;6.20;4.95;;;20.20;53.20;;;;;;5013008;28;20030;-67
2021/07/23 02:02:42;;;;;;;7.47;5.97;;;20.20;53.40;;;;;;5015999;28;20027;-67
2021/07/23 02:05:09;;;;;;;6.63;5.13;;;20.20;53.90;;;;;;5032605;28;20104;-66
2021/07/23 02:07:36;;;;;;;8.57;5.15;;;20.10;53.80;;;;;;5032574;28;20024;-67
2021/07/23 02:10:04;;;;;;;6.53;5.18;;;20.10;53.80;;;;;;5032504;28;20025;-66
2021/07/23 02:12:30;;;;;;;6.35;5.00;;;20.10;53.80;;;;;;5032153;28;20033;-66
2021/07/23 02:14:56;;;;;;;8.27;5.93;;;20.10;53.90;;;;;;5032470;28;20497;-66
2021/07/23 02:17:21;;;;;;;8.50;6.43;;;20.10;54.10;;;;;;5032455;28;20052;-66
2021/07/23 02:19:47;;;;;;;8.57;5.97;;;20.00;54.40;;;;;;5032436;28;20095;-66
2021/07/23 02:22:13;;;;;;;6.43;4.95;;;20.00;54.30;;;;;;5032403;28;20433;-67
2021/07/23 02:24:39;;;;;;;5.88;4.78;;;19.90;54.10;;;;;;5032334;28;20030;-66
2021/07/23 02:27:05;;;;;;;7.57;5.90;;;19.90;54.30;;;;;;5032188;28;20088;-66
2021/07/23 02:29:30;;;;;;;7.82;5.75;;;19.90;54.50;;;;;;5032309;28;20033;-67
2021/07/23 02:31:56;;;;;;;5.93;4.55;;;19.90;54.80;;;;;;5032110;28;20049;-66
2021/07/23 02:34:23;;;;;;;7.88;4.93;;;19.80;54.50;;;;;;5032173;28;20029;-66
2021/07/23 02:36:49;;;;;;;14.13;5.55;;;19.80;54.60;;;;;;5032223;28;20361;-66
2021/07/23 02:39:14;;;;;;;6.93;5.18;;;19.80;54.50;;;;;;5032343;28;20021;-67
2021/07/23 02:41:40;;;;;;;6.90;4.70;;;19.80;54.60;;;;;;5030302;28;20386;-66
2021/07/23 02:44:06;;;;;;;8.38;4.97;;;19.80;54.50;;;;;;5032095;28;20032;-66
2021/07/23 02:46:32;;;;;;;8.15;5.55;;;19.80;55.20;;;;;;5032243;28;20112;-66
2021/07/23 02:48:58;;;;;;;8.18;4.90;;;19.80;54.70;;;;;;5030624;28;20052;-66
2021/07/23 02:51:23;;;;;;;8.55;5.93;;;19.70;54.80;;;;;;5032039;28;20083;-66
2021/07/23 02:53:49;;;;;;;8.88;5.43;;;19.70;55.00;;;;;;5032090;28;20091;-66
2021/07/23 02:56:15;;;;;;;7.82;5.50;;;19.70;55.00;;;;;;5031974;28;20434;-66
2021/07/23 02:58:42;;;;;;;8.13;5.28;;;19.70;55.00;;;;;;5032039;28;20068;-66
2021/07/23 03:01:09;;;;;;;9.88;5.15;;;19.60;55.00;;;;;;5034659;28;20022;-66
2021/07/23 03:03:35;;;;;;;9.23;5.43;;;19.60;55.20;;;;;;5035844;28;20029;-66
2021/07/23 03:06:02;;;;;;;8.65;5.50;;;19.60;55.10;;;;;;5036007;28;20505;-67
2021/07/23 03:08:28;;;;;;;8.25;5.63;;;19.60;55.20;;;;;;5035965;28;20025;-67
2021/07/23 03:10:55;;;;;;;9.07;5.65;;;19.60;55.60;;;;;;5036034;28;20386;-67
2021/07/23 03:13:20;;;;;;;6.35;4.90;;;19.60;55.50;;;;;;5033305;28;20493;-67
2021/07/23 03:15:46;;;;;;;6.93;4.65;;;19.60;56.10;;;;;;5016060;28;20029;-67
2021/07/23 03:18:12;;;;;;;8.45;5.03;;;19.50;55.60;;;;;;5016070;28;20434;-67
2021/07/23 03:20:38;;;;;;;8.43;5.32;;;19.50;55.50;;;;;;5015944;28;20152;-66
2021/07/23 03:23:07;;;;;;;7.18;5.45;;;19.50;56.10;;;;;;5015915;28;20030;-66
2021/07/23 03:25:33;;;;;;;7.70;5.47;;;19.40;56.10;;;;;;5015899;28;20022;-67
2021/07/23 03:27:59;;;;;;;7.35;5.88;;;19.40;56.90;;;;;;5015917;28;20056;-66
2021/07/23 03:30:27;;;;;;;9.27;5.30;;;19.50;56.30;;;;;;5015656;28;20542;-66
2021/07/23 03:32:53;;;;;;;7.10;5.00;;;19.50;56.30;;;;;;5015467;28;20104;-67
2021/07/23 03:35:19;;;;;;;7.65;5.05;;;19.50;56.20;;;;;;5015588;28;20032;-67
2021/07/23 03:37:45;;;;;;;8.85;4.97;;;19.40;56.10;;;;;;5015634;28;20030;-66
2021/07/23 03:40:10;;;;;;;8.07;5.15;;;19.40;56.30;;;;;;5015573;28;20109;-67
2021/07/23 03:42:36;;;;;;;7.18;4.97;;;19.40;56.00;;;;;;5027053;28;20032;-66
2021/07/23 03:45:03;;;;;;;6.50;5.15;;;19.40;56.00;;;;;;5035265;28;20030;-66
2021/07/23 03:47:29;;;;;;;11.35;5.38;;;19.40;56.10;;;;;;5035073;28;20027;-66
2021/07/23 03:49:55;;;;;;;6.25;4.47;;;19.40;56.20;;;;;;5035369;28;20104;-66
2021/07/23 03:52:21;;;;;;;8.93;5.30;;;19.40;56.20;;;;;;5035362;28;20025;-67
2021/07/23 03:54:49;;;;;;;9.73;4.90;;;19.40;56.30;;;;;;5035194;28;20029;-67
2021/07/23 03:57:15;;;;;;;7.40;5.45;;;19.40;56.30;;;;;;5035041;28;20072;-66
2021/07/23 03:59:41;;;;;;;7.78;4.97;;;19.40;56.20;;;;;;5035055;28;20021;-66
2021/07/23 04:02:07;;;;;;;7.15;5.60;;;19.50;56.40;;;;;;5034994;28;20475;-67
2021/07/23 04:04:32;;;;;;;9.02;5.80;;;19.50;56.30;;;;;;5034641;28;20041;-66
2021/07/23 04:06:59;;;;;;;6.75;5.40;;;19.50;56.40;;;;;;5034583;28;20440;-66
2021/07/23 04:09:26;;;;;;;6.95;5.10;;;19.60;56.40;;;;;;5034751;28;20087;-67
2021/07/23 04:11:53;;;;;;;7.63;5.43;;;19.60;56.30;;;;;;5033531;28;20056;-67
2021/07/23 04:14:19;;;;;;;7.13;5.22;;;19.60;56.30;;;;;;5034629;28;20025;-67
2021/07/23 04:16:45;;;;;;;11.73;5.43;;;19.60;56.20;;;;;;5034630;28;20017;-66
2021/07/23 04:19:11;;;;;;;8.95;4.70;;;19.70;56.40;;;;;;5034726;28;20025;-66
2021/07/23 04:21:37;;;;;;;9.80;5.93;;;19.70;56.50;;;;;;5034577;28;20029;-67
2021/07/23 04:24:04;;;;;;;9.40;5.30;;;19.70;56.80;;;;;;5034493;28;20199;-67
2021/07/23 04:26:29;;;;;;;16.52;5.30;;;19.70;56.90;;;;;;5034382;28;20021;-66
2021/07/23 04:28:55;;;;;;;9.15;5.32;;;19.80;57.00;;;;;;5034301;28;20136;-66
2021/07/23 04:31:21;;;;;;;6.57;4.75;;;19.80;56.80;;;;;;5034204;28;20021;-66
2021/07/23 04:33:47;;;;;;;6.65;4.82;;;19.80;56.60;;;;;;5034668;28;20017;-67
2021/07/23 04:36:13;;;;;;;6.60;4.90;;;19.90;56.60;;;;;;5034434;28;20032;-66
2021/07/23 04:38:39;;;;;;;7.25;5.03;;;19.90;56.50;;;;;;5034225;28;20025;-66
2021/07/23 04:41:04;;;;;;;7.93;5.75;;;19.90;56.40;;;;;;5033753;28;20032;-67
2021/07/23 04:43:31;;;;;;;10.52;5.28;;;20.00;56.70;;;;;;5032908;28;20100;-67
2021/07/23 04:45:58;;;;;;;8.23;5.32;;;20.00;56.60;;;;;;5034091;28;20026;-67
2021/07/23 04:48:24;;;;;;;10.00;5.05;;;20.10;56.40;;;;;;5034123;28;20026;-66
2021/07/23 04:50:50;;;;;;;5.85;4.68;;;20.10;55.80;;;;;;5034012;28;20064;-67
2021/07/23 04:53:16;;;;;;;8.45;6.03;;;20.20;55.90;;;;;;5033193;28;20376;-67
2021/07/23 04:55:48;;;;;;;7.05;4.47;;;20.20;55.90;;;;;;5034054;28;20032;-67
2021/07/23 04:58:14;;;;;;;6.97;5.00;;;20.30;55.60;;;;;;5034161;28;20032;-66
2021/07/23 05:00:40;;;;;;;18.45;4.97;;;20.40;55.30;;;;;;5034059;28;20026;-67
2021/07/23 05:03:06;;;;;;;8.90;5.55;;;20.40;55.40;;;;;;5033596;28;20025;-67
2021/07/23 05:05:34;;;;;;;10.18;5.50;;;20.50;55.60;;;;;;5033767;28;20068;-66
2021/07/23 05:08:00;;;;;;;6.85;5.18;;;20.50;55.50;;;;;;5033819;28;20040;-66
2021/07/23 05:10:26;;;;;;;11.07;5.43;;;20.60;55.50;;;;;;5033651;28;20025;-67
2021/07/23 05:12:52;;;;;;;18.65;5.15;;;20.70;55.30;;;;;;5033253;28;20037;-66
2021/07/23 05:15:18;;;;;;;9.40;4.97;;;20.80;55.10;;;;;;5033654;28;20530;-67
2021/07/23 05:17:44;;;;;;;10.90;5.38;;;20.80;54.70;;;;;;5032295;28;20029;-67
2021/07/23 05:20:10;;;;;;;8.13;5.38;;;20.90;54.50;;;;;;5033600;28;20032;-67
2021/07/23 05:22:38;;;;;;;7.35;4.90;;;21.00;54.20;;;;;;5033437;28;20029;-67
2021/07/23 05:25:05;;;;;;;7.93;4.65;;;21.10;54.10;;;;;;5033375;28;20048;-67
2021/07/23 05:27:30;;;;;;;7.05;4.63;;;21.10;53.90;;;;;;5033266;28;20026;-67
2021/07/23 05:29:58;;;;;;;8.55;4.90;;;21.20;53.80;;;;;;5033285;28;20024;-66
2021/07/23 05:32:24;;;;;;;9.68;5.05;;;21.30;53.80;;;;;;5032930;28;20052;-67
2021/07/23 05:34:49;;;;;;;8.43;4.63;;;21.30;53.70;;;;;;5033181;28;20018;-67
2021/07/23 05:37:15;;;;;;;7.65;4.57;;;21.40;53.60;;;;;;5031832;28;20047;-67
2021/07/23 05:39:41;;;;;;;6.30;4.80;;;21.50;53.40;;;;;;5033001;28;20036;-66
2021/07/23 05:42:11;;;;;;;7.60;5.28;;;21.60;53.30;;;;;;5032420;28;20034;-66
2021/07/23 05:44:36;;;;;;;12.20;5.35;;;21.60;53.00;;;;;;5033085;28;20029;-67
2021/07/23 05:47:02;;;;;;;10.32;5.32;;;21.70;52.90;;;;;;5031609;28;20387;-66
2021/07/23 05:49:28;;;;;;;7.50;4.45;;;21.80;52.80;;;;;;5033053;28;20028;-67
2021/07/23 05:51:54;;;;;;;15.48;5.18;;;21.80;52.70;;;;;;5033100;28;20117;-67
2021/07/23 05:54:20;;;;;;;5.82;4.45;;;21.90;52.80;;;;;;5032846;28;20041;-67
2021/07/23 05:56:46;;;;;;;7.15;4.57;;;21.90;52.70;;;;;;5032950;28;20483;-67
2021/07/23 05:59:12;;;;;;;7.13;4.82;;;22.00;52.60;;;;;;5032684;28;20033;-67
2021/07/23 06:01:38;;;;;;;7.07;5.10;;;22.00;52.40;;;;;;5032720;28;20053;-67
2021/07/23 06:04:04;;;;;;;8.95;6.70;;;22.10;52.20;;;;;;5032451;28;20068;-67
2021/07/23 06:06:30;;;;;;;12.05;6.82;;;22.20;51.70;;;;;;5032591;28;20044;-67
2021/07/23 06:09:00;;;;;;;12.98;6.35;;;22.20;51.30;;;;;;5032585;28;20034;-67
2021/07/23 06:11:26;;;;;;;11.27;6.63;;;22.30;51.30;;;;;;5032119;28;20426;-67
2021/07/23 06:13:52;;;;;;;11.27;6.47;;;22.40;51.30;;;;;;5032456;28;20391;-66
2021/07/23 06:16:18;;;;;;;9.32;6.65;;;22.40;51.10;;;;;;5032051;28;20041;-67
2021/07/23 06:18:44;;;;;;;9.23;6.53;;;22.50;50.60;;;;;;5032300;28;20029;-67
2021/07/23 06:21:10;;;;;;;16.02;6.88;;;22.60;50.60;;;;;;5032364;28;20055;-67
2021/07/23 06:23:36;;;;;;;36.00;9.32;;;22.60;50.40;;;;;;5031983;28;20025;-67
2021/07/23 06:26:03;;;;;;;13.13;8.02;;;22.70;50.00;;;;;;5032229;28;20033;-67
2021/07/23 06:28:29;;;;;;;23.05;9.60;;;22.80;50.00;;;;;;5032351;28;20022;-67
2021/07/23 06:31:00;;;;;;;13.32;8.60;;;22.80;49.80;;;;;;5032266;28;20021;-67
2021/07/23 06:33:25;;;;;;;13.15;7.55;;;22.90;49.70;;;;;;5030672;28;20054;-67
2021/07/23 06:35:51;;;;;;;21.80;10.25;;;23.00;49.50;;;;;;5031744;28;20722;-67
2021/07/23 06:38:17;;;;;;;13.65;9.10;;;23.10;48.80;;;;;;5032191;28;20052;-67
2021/07/23 06:40:42;;;;;;;26.38;9.82;;;23.10;48.90;;;;;;5031985;28;20025;-67
2021/07/23 06:43:08;;;;;;;20.60;9.30;;;23.20;48.60;;;;;;5027065;28;20044;-66
2021/07/23 06:45:35;;;;;;;14.73;10.15;;;23.30;48.60;;;;;;5011783;28;20063;-67
2021/07/23 06:48:01;;;;;;;15.30;9.20;;;23.30;48.30;;;;;;5012128;28;20024;-67
2021/07/23 06:50:27;;;;;;;18.92;10.52;;;23.40;48.40;;;;;;5012394;28;20026;-67
2021/07/23 06:52:52;;;;;;;16.52;9.25;;;23.50;47.90;;;;;;5012143;28;20022;-67
2021/07/23 06:55:18;;;;;;;16.98;9.98;;;23.60;48.00;;;;;;5012160;28;20045;-66
2021/07/23 06:57:44;;;;;;;17.52;9.60;;;23.60;47.90;;;;;;5012069;28;20095;-67
2021/07/23 07:00:10;;;;;;;31.15;9.00;;;23.70;47.90;;;;;;5012172;28;20523;-67
2021/07/23 07:02:36;;;;;;;11.38;8.23;;;23.80;47.80;;;;;;5014243;28;20029;-67
2021/07/23 07:05:03;;;;;;;11.40;8.52;;;23.90;47.60;;;;;;5030489;28;20383;-67
2021/07/23 07:07:29;;;;;;;12.10;8.05;;;23.90;47.30;;;;;;5031701;28;20025;-67
2021/07/23 07:09:54;;;;;;;12.77;8.27;;;24.00;46.90;;;;;;5031819;28;20048;-67
2021/07/23 07:12:20;;;;;;;10.88;7.95;;;24.00;46.70;;;;;;5031446;28;20030;-67
2021/07/23 07:14:46;;;;;;;9.63;7.05;;;24.10;46.70;;;;;;5031774;28;20386;-67
2021/07/23 07:17:12;;;;;;;7.82;6.43;;;24.20;46.10;;;;;;5031686;28;20026;-67
2021/07/23 07:19:38;;;;;;;8.98;6.65;;;24.20;46.20;;;;;;5031620;28;20112;-67
2021/07/23 07:22:05;;;;;;;14.15;6.72;;;24.30;46.40;;;;;;5031811;28;20185;-67
2021/07/23 07:24:31;;;;;;;7.32;5.22;;;24.30;45.90;;;;;;5031584;28;20025;-67
2021/07/23 07:26:56;;;;;;;11.25;6.30;;;24.40;45.80;;;;;;5031571;28;20032;-67
2021/07/23 07:29:22;;;;;;;7.53;5.47;;;24.50;46.00;;;;;;5031692;28;20068;-67
2021/07/23 07:31:48;;;;;;;10.43;6.40;;;24.60;45.90;;;;;;5031351;28;20088;-67
2021/07/23 07:34:14;;;;;;;6.70;5.03;;;24.70;45.20;;;;;;5030098;28;20021;-67
2021/07/23 07:36:39;;;;;;;7.88;5.68;;;24.70;45.10;;;;;;5031394;28;20120;-67
2021/07/23 07:39:06;;;;;;;7.07;4.90;;;24.80;45.10;;;;;;5031499;28;20030;-67
2021/07/23 07:41:32;;;;;;;16.77;6.20;;;24.80;44.00;;;;;;5030636;28;20572;-67
2021/07/23 07:43:57;;;;;;;8.45;5.60;;;24.90;43.90;;;;;;5031315;28;20030;-67
2021/07/23 07:46:23;;;;;;;10.10;5.82;;;24.90;44.10;;;;;;5031354;28;20017;-67
2021/07/23 07:48:49;;;;;;;7.82;5.68;;;25.00;44.60;;;;;;5034927;28;20104;-67
2021/07/23 07:51:15;;;;;;;8.88;5.80;;;25.00;43.40;;;;;;5035280;28;20437;-67
2021/07/23 07:53:42;;;;;;;8.93;6.13;;;25.10;42.40;;;;;;5034926;28;20104;-67
2021/07/23 07:56:09;;;;;;;10.77;5.82;;;25.10;42.10;;;;;;5035033;28;20036;-67
2021/07/23 07:58:35;;;;;;;9.02;6.90;;;25.20;41.80;;;;;;5035003;28;20625;-67
2021/07/23 08:01:08;;;;;;;12.40;6.93;;;25.20;41.50;;;;;;5034903;28;20104;-67
2021/07/23 08:03:34;;;;;;;7.20;5.38;;;25.30;41.50;;;;;;5034706;28;20050;-71
2021/07/23 08:06:05;;;;;;;8.13;6.07;;;25.30;41.90;;;;;;5034790;28;20103;-67
2021/07/23 08:08:31;;;;;;;13.68;6.57;;;25.40;41.00;;;;;;5034947;28;20436;-67
2021/07/23 08:10:57;;;;;;;10.65;7.22;;;25.50;40.60;;;;;;5034532;28;20057;-67
2021/07/23 08:13:26;;;;;;;8.48;5.65;;;25.50;39.70;;;;;;5034510;28;20032;-67
2021/07/23 08:15:56;;;;;;;10.20;5.68;;;25.50;40.80;;;;;;5034695;28;20108;-67
2021/07/23 08:18:23;;;;;;;14.32;6.10;;;25.60;41.40;;;;;;5034645;28;20037;-67
2021/07/23 08:20:51;;;;;;;10.65;6.05;;;25.70;40.80;;;;;;5034490;28;20028;-67
2021/07/23 08:23:18;;;;;;;16.10;6.30;;;25.80;40.80;;;;;;5033174;28;20079;-67
2021/07/23 08:25:44;;;;;;;73.88;26.17;;;25.80;40.30;;;;;;5034449;28;20064;-67
2021/07/23 08:28:11;;;;;;;25.17;12.82;;;25.90;40.10;;;;;;5034593;28;20100;-67
2021/07/23 08:30:37;;;;;;;18.83;7.13;;;26.00;39.40;;;;;;5034563;28;20017;-67
2021/07/23 08:33:02;;;;;;;9.55;6.20;;;26.00;39.60;;;;;;5034236;28;20038;-67
2021/07/23 08:35:28;;;;;;;14.23;6.53;;;26.00;39.90;;;;;;5034609;28;20025;-67
2021/07/23 08:37:54;;;;;;;589.28;41.85;;;26.10;40.00;;;;;;5034201;28;20080;-67
2021/07/23 08:40:20;;;;;;;35.72;7.85;;;26.20;39.70;;;;;;5034051;28;20541;-67
2021/07/23 08:42:47;;;;;;;7.75;5.78;;;26.20;40.30;;;;;;5032586;28;20029;-67
2021/07/23 08:45:13;;;;;;;8.65;5.85;;;26.30;40.10;;;;;;5034035;28;20075;-68
2021/07/23 08:47:39;;;;;;;8.48;5.75;;;26.40;40.20;;;;;;5033865;28;20021;-67
2021/07/23 08:50:05;;;;;;;20.25;9.85;;;26.50;40.00;;;;;;5033983;28;20025;-67
2021/07/23 08:52:45;;;;;;;11.32;6.18;;;26.50;38.20;;;;;;5032428;28;20025;-68
2021/07/23 08:55:15;;;;;;;9.85;6.38;;;26.60;38.50;;;;;;5034043;28;20065;-67
2021/07/23 08:57:42;;;;;;;8.43;6.15;;;26.70;38.60;;;;;;5033553;28;20032;-67
2021/07/23 09:00:10;;;;;;;10.73;6.28;;;26.70;38.50;;;;;;5032581;28;20030;-68
2021/07/23 09:02:59;;;;;;;9.63;6.25;;;26.80;37.90;;;;;;5033403;28;20083;-68
2021/07/23 09:05:34;;;;;;;9.20;5.85;;;26.80;36.60;;;;;;5033469;28;20029;-68
2021/07/23 09:08:21;;;;;;;9.15;5.90;;;26.90;36.60;;;;;;5033764;28;20105;-68
2021/07/23 09:11:01;;;;;;;8.80;5.00;;;26.90;37.30;;;;;;5033434;28;20021;-68
2021/07/23 09:13:27;;;;;;;12.20;4.93;;;27.00;37.30;;;;;;5032367;28;20109;-67
2021/07/23 09:15:57;;;;;;;6.28;5.03;;;27.10;36.60;;;;;;5033610;28;20104;-68
2021/07/23 09:18:28;;;;;;;6.95;4.60;;;27.10;36.60;;;;;;5033507;28;20021;-68
2021/07/23 09:21:00;;;;;;;8.65;5.28;;;27.20;37.20;;;;;;5033488;28;20033;-68
2021/07/23 09:23:32;;;;;;;9.88;4.78;;;27.30;36.90;;;;;;5033242;28;20049;-67
2021/07/23 09:26:07;;;;;;;10.45;5.20;;;27.30;36.80;;;;;;5033343;28;20425;-68
2021/07/23 09:28:35;;;;;;;12.48;6.10;;;27.40;37.00;;;;;;5033405;28;20104;-68
2021/07/23 09:31:21;;;;;;;10.63;5.43;;;27.50;36.00;;;;;;5033345;28;20025;-68
2021/07/23 09:33:51;;;;;;;14.38;7.15;;;27.50;36.30;;;;;;5033444;28;20487;-66
2021/07/23 09:36:17;;;;;;;11.10;5.43;;;27.60;35.40;;;;;;5033228;28;20083;-66
2021/07/23 09:38:45;;;;;;;8.32;5.80;;;27.60;36.40;;;;;;5033027;28;20044;-67
2021/07/23 09:41:13;;;;;;;8.68;4.95;;;27.70;36.00;;;;;;5032424;28;20383;-67
2021/07/23 09:43:40;;;;;;;7.97;5.65;;;27.80;36.60;;;;;;5024098;28;20033;-67
2021/07/23 09:46:18;;;;;;;8.25;5.05;;;27.90;35.50;;;;;;5012927;28;20069;-66
2021/07/23 09:48:44;;;;;;;9.27;5.63;;;27.90;36.00;;;;;;5011563;28;20472;-67
2021/07/23 09:51:11;;;;;;;10.50;5.10;;;27.90;35.50;;;;;;5013047;28;20030;-67
2021/07/23 09:53:37;;;;;;;7.22;4.70;;;28.00;35.70;;;;;;5012999;28;20018;-67
2021/07/23 09:56:10;;;;;;;9.55;5.35;;;28.10;35.50;;;;;;5012898;28;20432;-67
2021/07/23 09:58:44;;;;;;;11.15;5.63;;;28.10;35.70;;;;;;5013313;28;20061;-67
2021/07/23 10:01:34;;;;;;;6.75;4.28;;;28.20;35.20;;;;;;5011785;28;20037;-67
2021/07/23 10:04:24;;;;;;;7.40;4.55;;;28.20;35.10;;;;;;5026632;28;20136;-66
2021/07/23 10:07:12;;;;;;;24.73;7.10;;;28.30;35.50;;;;;;5032395;28;20032;-68
2021/07/23 10:09:42;;;;;;;113.13;10.93;;;28.40;35.20;;;;;;5032134;28;20018;-67
2021/07/23 10:12:10;;;;;;;119.05;13.80;;;28.40;34.30;;;;;;5032203;28;20417;-68
2021/07/23 10:14:45;;;;;;;29.75;6.60;;;28.50;35.00;;;;;;5032354;28;20029;-68
2021/07/23 10:17:12;;;;;;;33.15;8.23;;;28.50;35.20;;;;;;5031300;28;20487;-67
2021/07/23 10:19:38;;;;;;;12.73;5.88;;;28.60;34.10;;;;;;5032292;28;20040;-67
2021/07/23 10:22:05;;;;;;;20.55;6.65;;;28.70;34.70;;;;;;5032227;28;20061;-68
2021/07/23 10:24:33;;;;;;;15.00;6.38;;;28.80;35.00;;;;;;5032628;28;20141;-68
2021/07/23 10:27:07;;;;;;;12.25;5.68;;;28.80;34.60;;;;;;5030951;28;20483;-67
2021/07/23 10:29:52;;;;;;;7.95;5.10;;;28.90;34.20;;;;;;5032269;28;20052;-67
2021/07/23 10:32:24;;;;;;;10.02;5.05;;;28.90;34.80;;;;;;5032246;28;20414;-67
2021/07/23 10:34:50;;;;;;;10.88;5.88;;;29.00;33.80;;;;;;5032266;28;20014;-67
2021/07/23 10:37:48;;;;;;;8.35;4.45;;;29.10;33.60;;;;;;5030391;28;20029;-68
2021/07/23 10:40:14;;;;;;;22.27;5.90;;;29.10;33.90;;;;;;5012244;28;20083;-68
2021/07/23 10:42:44;;;;;;;13.02;6.10;;;29.20;34.00;;;;;;5027849;28;20033;-67
2021/07/23 10:45:14;;;;;;;18.55;6.00;;;29.20;33.10;;;;;;5031965;28;20041;-67
2021/07/23 10:47:45;;;;;;;12.57;5.32;;;29.30;33.60;;;;;;5031771;28;20045;-68
2021/07/23 10:50:40;;;;;;;7.70;5.30;;;29.40;33.30;;;;;;5031875;28;20022;-67
2021/07/23 10:53:27;;;;;;;9.02;5.18;;;29.50;33.50;;;;;;5028968;28;20033;-66
2021/07/23 10:55:53;;;;;;;11.02;4.93;;;29.50;33.00;;;;;;5031624;28;20030;-68
2021/07/23 10:58:31;;;;;;;7.70;4.78;;;29.60;32.10;;;;;;5031735;28;20498;-66
2021/07/23 11:01:01;;;;;;;5.43;4.03;;;29.60;32.90;;;;;;5031817;28;20041;-67
2021/07/23 11:03:43;;;;;;;6.50;4.10;;;29.70;32.70;;;;;;5031603;28;20037;-66
2021/07/23 11:06:20;;;;;;;9.25;5.30;;;29.70;32.70;;;;;;5031837;28;20021;-66
2021/07/23 11:08:51;;;;;;;8.00;5.07;;;29.80;32.80;;;;;;5031981;28;20105;-66
2021/07/23 11:11:18;;;;;;;7.65;4.60;;;29.90;31.50;;;;;;5031519;28;20071;-67
2021/07/23 11:13:45;;;;;;;8.93;4.65;;;29.90;31.30;;;;;;5031722;28;20033;-66
2021/07/23 11:16:16;;;;;;;7.20;4.25;;;30.00;30.70;;;;;;5031736;28;20026;-67
2021/07/23 11:18:55;;;;;;;7.50;4.38;;;30.00;30.50;;;;;;5045536;28;20017;-67
2021/07/23 11:21:22;;;;;;;8.75;4.95;;;30.10;30.40;;;;;;5033099;28;20061;-67
2021/07/23 11:23:49;;;;;;;11.52;4.55;;;30.10;29.80;;;;;;5035565;28;20025;-67
2021/07/23 11:26:24;;;;;;;6.13;4.28;;;30.10;29.50;;;;;;5035475;28;20029;-67
2021/07/23 11:28:55;;;;;;;5.47;4.70;;;30.20;29.90;;;;;;5035486;28;20230;-67
2021/07/23 11:31:36;;;;;;;6.65;4.82;;;30.20;30.00;;;;;;5035236;28;20021;-67
2021/07/23 11:34:25;;;;;;;7.82;4.90;;;30.30;30.20;;;;;;5035188;28;20091;-68
2021/07/23 11:36:52;;;;;;;5.97;3.75;;;30.30;29.00;;;;;;5025771;28;20051;-68
2021/07/23 11:39:22;;;;;;;6.93;4.80;;;30.40;29.40;;;;;;5015644;28;20038;-67
2021/07/23 11:41:58;;;;;;;12.05;5.47;;;30.40;28.50;;;;;;5026271;28;20112;-67
2021/07/23 11:44:24;;;;;;;7.15;5.05;;;30.40;27.80;;;;;;5035344;28;20029;-68
2021/07/23 11:46:50;;;;;;;6.20;4.88;;;30.40;27.60;;;;;;5035262;28;20101;-67
2021/07/23 11:49:15;;;;;;;5.00;4.20;;;30.50;27.50;;;;;;5035276;28;20021;-67
2021/07/23 11:51:47;;;;;;;6.63;4.53;;;30.50;28.40;;;;;;5035150;28;20360;-67
2021/07/23 11:54:18;;;;;;;7.07;4.80;;;30.50;28.10;;;;;;5035066;28;20022;-67
2021/07/23 11:56:44;;;;;;;9.63;5.40;;;30.50;28.30;;;;;;5035010;28;20516;-67
2021/07/23 11:59:11;;;;;;;6.88;4.47;;;30.60;27.60;;;;;;5033976;28;20056;-67
2021/07/23 12:01:39;;;;;;;5.90;4.97;;;30.60;27.70;;;;;;5034978;28;20025;-67
2021/07/23 12:04:07;;;;;;;7.78;5.22;;;30.60;27.40;;;;;;5034704;28;20064;-67
2021/07/23 12:06:36;;;;;;;5.60;4.65;;;30.60;27.50;;;;;;5034867;28;20074;-67
2021/07/23 12:09:04;;;;;;;6.60;4.45;;;30.60;27.90;;;;;;5034896;28;20503;-67
2021/07/23 12:11:31;;;;;;;5.03;4.05;;;30.60;28.20;;;;;;5034356;28;20048;-67
2021/07/23 12:13:58;;;;;;;5.63;4.78;;;30.60;27.90;;;;;;5034508;28;20017;-67
2021/07/23 12:16:25;;;;;;;6.45;4.57;;;30.60;27.80;;;;;;5034789;28;20021;-67
2021/07/23 12:19:09;;;;;;;7.50;4.65;;;30.70;28.20;;;;;;5034679;28;20056;-67
2021/07/23 12:21:36;;;;;;;8.18;5.78;;;30.70;28.90;;;;;;5051266;28;20075;-67
2021/07/23 12:24:04;;;;;;;7.43;5.43;;;30.80;28.60;;;;;;5054421;28;20025;-67
2021/07/23 12:26:35;;;;;;;8.48;4.85;;;30.80;28.20;;;;;;5054403;28;20439;-67
2021/07/23 12:29:04;;;;;;;6.72;4.53;;;30.90;27.70;;;;;;5054528;28;20029;-67
2021/07/23 12:31:30;;;;;;;7.00;4.85;;;30.90;27.60;;;;;;5054143;28;20025;-67
2021/07/23 12:34:10;;;;;;;6.85;4.50;;;31.00;28.00;;;;;;5053566;28;20115;-67
2021/07/23 12:36:46;;;;;;;6.20;4.97;;;31.00;28.40;;;;;;5016000;28;20502;-67
2021/07/23 12:39:15;;;;;;;6.70;4.95;;;31.10;28.10;;;;;;5013191;28;20076;-67
2021/07/23 12:41:42;;;;;;;10.02;5.60;;;31.20;28.30;;;;;;5026380;28;20068;-67
2021/07/23 12:44:15;;;;;;;12.38;4.85;;;31.20;28.10;;;;;;5034172;28;20033;-67
2021/07/23 12:46:43;;;;;;;7.35;4.57;;;31.30;28.70;;;;;;5034230;28;20029;-68